Mill Hall, Pennsylvania
Current Conditions -  °F | °C
As of 11:53 AM on Monday 22 Dec 2014 (Local Time) from KUNV Reporting Station
Overcast Overcast  
Wind Chill: 30°   Ceiling: 2500
Heat Index: 30°   Visibility: 10mi
Dew Point: 25°   Wind: 0mph
Humidity: 80%   Direction: NA
Pressure: 30.19"   Gusts: NA
Location:  41.11°N, 77.48°W
Report Text: KUNV 221653Z 00000KT 10SM OVC025 M01/M04 A3019
Loading
Personal Weather Stations






























Interactive Weather Map New forecast layout! Learn more

10-Day Weather Forecast

Advertisements
Track Severe Weather on mobile